»·PEaware :: JBU2136 KLGB-KSFO

JBU2136 :: KLGB-KSFO

FLIGHT INFORMATION

Flight Status: Arrived
Operator:
JetBlue Airways
More flights by this operator :: More flights under this callsign
Pilot: Tyler B. (19112)
Aircraft: EMBRAER EMB-190/195
(E190)
More flights by this aircraft type
Origin: KLGB Long Beach
United States
Destination: KSFO San Francisco Intl
United States
More flights between these airports :: More routes between these airports
Route: +VTU RZS STOKD SERFR SERFR3
File this flight plan on PilotEdge
Remarks:
Altitude:
(Current/Filed)
36,000ft
Speed:
(Current/Filed)
467kts
Departed: 16-May-18 03:55 PM
Arrived: 16-May-18 04:53 PM
Distance/Time
Traveled:
307nm/0:58
Distance/Time
To Go:
Arrived

Flight Plot

Page will automatically refresh every two minutes.

Flight plan parsing failed; only flown route is shown


Map Options




Map Legend


Flown Route
Filed Route
Departure Airport
Arrival Airport
Navaid (VOR, NDB)
Fix

Horizontal Profiles

Position Reports

Time Latitude Longitude Heading Altitude Ground
Speed
16-May-18 14:37 33.818965 -118.146097 104 38ft 0kts
16-May-18 14:38 33.818965 -118.146097 104 38ft 0kts
16-May-18 14:39 33.818965 -118.146097 104 38ft 0kts
16-May-18 14:40 33.818965 -118.146097 104 38ft 0kts
16-May-18 14:41 33.818965 -118.146097 104 38ft 0kts
16-May-18 14:42 33.818965 -118.146097 104 38ft 0kts
16-May-18 14:43 33.818965 -118.146097 104 38ft 0kts
16-May-18 14:44 33.818965 -118.146097 104 38ft 0kts
16-May-18 14:45 33.818965 -118.146097 104 38ft 0kts
16-May-18 14:46 33.818965 -118.146097 104 38ft 0kts
16-May-18 14:47 33.818965 -118.146097 104 38ft 0kts
16-May-18 14:48 33.818965 -118.146097 104 38ft 0kts
16-May-18 14:49 33.818965 -118.146097 104 38ft 0kts
16-May-18 14:50 33.818965 -118.146097 104 38ft 0kts
16-May-18 14:51 33.818965 -118.146097 104 38ft 0kts
16-May-18 14:52 33.818965 -118.146097 104 38ft 0kts
16-May-18 14:53 33.818965 -118.146097 104 38ft 0kts
16-May-18 14:54 33.818965 -118.146097 104 38ft 0kts
16-May-18 14:55 33.818965 -118.146097 104 38ft 0kts
16-May-18 14:56 33.818965 -118.146097 104 38ft 0kts
16-May-18 14:57 33.818965 -118.146097 104 38ft 0kts
16-May-18 14:58 33.818965 -118.146097 104 38ft 0kts
16-May-18 14:59 33.818965 -118.146097 104 38ft 0kts
16-May-18 15:00 33.818965 -118.146097 104 38ft 0kts
16-May-18 15:01 33.818965 -118.146097 104 38ft 0kts
16-May-18 15:02 33.818965 -118.146097 104 38ft 0kts
16-May-18 15:03 33.818965 -118.146097 104 38ft 0kts
16-May-18 15:04 33.818965 -118.146097 104 38ft 0kts
16-May-18 15:05 33.818965 -118.146097 104 38ft 0kts
16-May-18 15:06 33.818965 -118.146097 104 38ft 0kts
16-May-18 15:07 33.818965 -118.146097 104 38ft 0kts
16-May-18 15:08 33.818965 -118.146097 104 38ft 0kts
16-May-18 15:09 33.818965 -118.146097 104 38ft 0kts
16-May-18 15:10 33.818965 -118.146097 104 38ft 0kts
16-May-18 15:11 33.818965 -118.146097 104 38ft 0kts
16-May-18 15:12 33.818965 -118.146097 104 38ft 0kts
16-May-18 15:13 33.818965 -118.146097 104 38ft 0kts
16-May-18 15:14 33.818965 -118.146097 104 38ft 0kts
16-May-18 15:15 33.818965 -118.146097 104 38ft 0kts
16-May-18 15:16 33.818965 -118.146097 104 38ft 0kts
16-May-18 15:17 33.818965 -118.146097 104 38ft 0kts
16-May-18 15:18 33.818965 -118.146097 104 38ft 0kts
16-May-18 15:19 33.818965 -118.146097 104 38ft 0kts
16-May-18 15:20 33.818965 -118.146097 104 38ft 0kts
16-May-18 15:21 33.818965 -118.146097 104 38ft 0kts
16-May-18 15:22 33.818965 -118.146097 104 38ft 0kts
16-May-18 15:23 33.818965 -118.146097 104 38ft 0kts
16-May-18 15:24 33.818965 -118.146097 104 38ft 0kts
16-May-18 15:25 33.818965 -118.146097 104 38ft 0kts
16-May-18 15:26 33.818965 -118.146097 104 38ft 0kts
16-May-18 15:27 33.818965 -118.146097 104 38ft 0kts
16-May-18 15:28 33.818965 -118.146097 104 38ft 0kts
16-May-18 15:29 33.818965 -118.146097 104 38ft 0kts
16-May-18 15:30 33.818965 -118.146097 104 38ft 0kts
16-May-18 15:31 33.818965 -118.146097 104 38ft 0kts
16-May-18 15:32 33.818965 -118.146097 104 38ft 0kts
16-May-18 15:33 33.818965 -118.146097 104 38ft 0kts
16-May-18 15:34 33.818965 -118.146097 104 38ft 0kts
16-May-18 15:35 33.818965 -118.146097 104 38ft 0kts
16-May-18 15:36 33.818965 -118.146097 104 38ft 0kts
16-May-18 15:37 33.818965 -118.146097 104 38ft 0kts
16-May-18 15:38 33.818965 -118.146097 104 38ft 0kts
16-May-18 15:39 33.818965 -118.146097 104 38ft 0kts
16-May-18 15:40 33.818965 -118.146097 104 38ft 0kts
16-May-18 15:41 33.818965 -118.146097 104 38ft 0kts
16-May-18 15:42 33.818965 -118.146097 104 38ft 0kts
16-May-18 15:43 33.818964 -118.146092 104 38ft 0kts
16-May-18 15:44 33.818964 -118.146092 104 38ft 0kts
16-May-18 15:45 33.818964 -118.146092 104 38ft 0kts
16-May-18 15:46 33.818964 -118.146092 104 38ft 0kts
16-May-18 15:47 33.818964 -118.146092 104 38ft 0kts
16-May-18 15:48 33.819134 -118.146615 125 39ft 2kts
16-May-18 15:49 33.819612 -118.146936 177 40ft 0kts
16-May-18 15:50 33.819612 -118.146936 177 40ft 0kts
16-May-18 15:51 33.819308 -118.146973 178 40ft 8kts
16-May-18 15:52 33.813551 -118.144447 134 33ft 38kts
16-May-18 15:53 33.808680 -118.138509 135 29ft 12kts
16-May-18 15:54 33.807664 -118.139074 313 29ft 25kts
16-May-18 15:55 33.835615 -118.172612 313 1689ft 202kts
16-May-18 15:56 33.858310 -118.244637 281 2847ft 229kts
16-May-18 15:57 33.871437 -118.326876 263 4014ft 256kts
16-May-18 15:58 33.862809 -118.415687 263 6015ft 256kts
16-May-18 15:59 33.854811 -118.502141 263 6624ft 283kts
16-May-18 16:00 33.846833 -118.594505 263 10673ft 290kts
16-May-18 16:01 33.837985 -118.700010 262 12988ft 329kts
16-May-18 16:02 33.829082 -118.810624 263 13020ft 332kts
16-May-18 16:03 33.878362 -118.903221 316 16082ft 358kts
16-May-18 16:04 33.951690 -118.981338 309 19020ft 364kts
16-May-18 16:05 34.021343 -119.073421 304 21690ft 371kts
16-May-18 16:06 34.088123 -119.167873 303 23088ft 377kts
16-May-18 16:07 34.155372 -119.262593 304 23078ft 379kts
16-May-18 16:08 34.224469 -119.360132 303 24991ft 387kts
16-May-18 16:09 34.294555 -119.460582 302 26592ft 396kts
16-May-18 16:10 34.365622 -119.562760 302 28017ft 403kts
16-May-18 16:11 34.437882 -119.666979 301 29246ft 410kts
16-May-18 16:12 34.511502 -119.773365 303 30388ft 420kts
16-May-18 16:13 34.598620 -119.869624 310 31447ft 431kts
16-May-18 16:14 34.674557 -119.947300 309 32385ft 428kts
16-May-18 16:15 34.762754 -120.040310 308 33314ft 425kts
16-May-18 16:16 34.850587 -120.134191 307 34083ft 406kts
16-May-18 16:17 34.932582 -120.221965 307 34136ft 399kts
16-May-18 16:18 35.015461 -120.311473 309 34134ft 401kts
16-May-18 16:19 35.099041 -120.401514 309 34138ft 402kts
16-May-18 16:20 35.182249 -120.490107 310 34122ft 403kts
16-May-18 16:21 35.265348 -120.579522 309 34119ft 403kts
16-May-18 16:22 35.346339 -120.667763 308 34132ft 400kts
16-May-18 16:23 35.428460 -120.758331 309 34112ft 401kts
16-May-18 16:24 35.512994 -120.847245 312 34097ft 405kts
16-May-18 16:25 35.602111 -120.929501 314 34092ft 407kts
16-May-18 16:26 35.691860 -121.012107 314 34111ft 405kts
16-May-18 16:27 35.781116 -121.095399 315 34089ft 403kts
16-May-18 16:28 35.870214 -121.178826 316 34092ft 403kts
16-May-18 16:29 35.958957 -121.262089 316 34097ft 403kts
16-May-18 16:30 36.047784 -121.345650 316 34126ft 403kts
16-May-18 16:31 36.135398 -121.419252 322 33061ft 432kts
16-May-18 16:32 36.232069 -121.492143 323 30583ft 430kts
16-May-18 16:33 36.332470 -121.570045 323 28058ft 426kts
16-May-18 16:34 36.429645 -121.646688 323 25636ft 406kts
16-May-18 16:35 36.520494 -121.719393 323 23469ft 377kts
16-May-18 16:36 36.605851 -121.786961 323 21556ft 357kts
16-May-18 16:37 36.688131 -121.852143 324 19898ft 351kts
16-May-18 16:38 36.773263 -121.905873 340 18227ft 352kts
16-May-18 16:39 36.867014 -121.930306 345 16318ft 340kts
16-May-18 16:40 36.957710 -121.955440 341 14582ft 334kts
16-May-18 16:41 37.043639 -121.988736 342 12494ft 321kts
16-May-18 16:42 37.125466 -122.021128 342 10839ft 306kts
16-May-18 16:43 37.200170 -122.050144 342 9824ft 282kts
16-May-18 16:44 37.273831 -122.078951 342 7699ft 267kts
16-May-18 16:45 37.340147 -122.105012 342 5708ft 247kts
16-May-18 16:46 37.402844 -122.129621 342 4635ft 233kts
16-May-18 16:47 37.463693 -122.152873 345 4211ft 229kts
16-May-18 16:48 37.523481 -122.175716 319 3315ft 200kts
16-May-18 16:49 37.555646 -122.227982 303 2897ft 170kts
16-May-18 16:50 37.577162 -122.276204 297 2140ft 148kts
16-May-18 16:51 37.595610 -122.319840 296 1037ft 128kts
16-May-18 16:52 37.611897 -122.358819 295 36ft 118kts
16-May-18 16:53 37.618853 -122.375879 286 21ft 15kts
16-May-18 16:54 37.618946 -122.378093 266 26ft 0kts
16-May-18 16:55 37.618922 -122.378666 262 27ft 5kts
16-May-18 16:56 37.615701 -122.380312 207 29ft 11kts
16-May-18 16:57 37.612840 -122.382232 208 29ft 11kts
16-May-18 16:58 37.611169 -122.385510 256 29ft 9kts
16-May-18 16:59 37.611184 -122.388219 241 29ft 9kts
16-May-18 17:00 37.611472 -122.391673 345 26ft 13kts
16-May-18 17:01 37.612773 -122.390414 123 28ft 2kts
16-May-18 17:02 37.612655 -122.390130 116 28ft 0kts
16-May-18 17:03 37.612653 -122.390130 124 28ft 0kts

Navigation Log

Ident Type
Flight plan parsing failed, navigation log unavailable